Time;durP1;ratioP1;P1;durP2;ratioP2;P2;SDS_P1;SDS_P2;PMS_P1;PMS_P2;Temp;Humidity;BMP_temperature;BMP_pressure;BME280_temperature;BME280_humidity;BME280_pressure;Samples;Min_cycle;Max_cycle;Signal;HPM_P1;HPM_P2
2024/03/03 00:02:14;;;;;;;15.30;8.30;;;9.90;99.90;;;;;;4966419;28;20336;-72
2024/03/03 00:04:40;;;;;;;16.20;8.33;;;9.90;99.90;;;;;;4964698;28;21042;-73
2024/03/03 00:07:06;;;;;;;20.07;12.40;;;9.80;99.90;;;;;;4951502;28;20217;-72
2024/03/03 00:09:34;;;;;;;18.47;11.93;;;9.60;99.90;;;;;;4953071;28;20224;-73
2024/03/03 00:12:00;;;;;;;18.70;10.40;;;9.70;99.90;;;;;;4965678;28;20660;-73
2024/03/03 00:14:26;;;;;;;15.90;9.50;;;9.80;99.90;;;;;;4965944;28;20485;-74
2024/03/03 00:16:51;;;;;;;19.03;10.53;;;9.80;99.90;;;;;;4965156;28;20219;-73
2024/03/03 00:19:17;;;;;;;15.90;10.20;;;9.70;99.90;;;;;;4965673;28;20266;-74
2024/03/03 00:21:43;;;;;;;13.50;9.50;;;9.60;99.90;;;;;;4962607;28;20701;-74
2024/03/03 00:24:11;;;;;;;15.30;9.20;;;9.70;99.90;;;;;;4969164;28;20454;-74
2024/03/03 00:26:44;;;;;;;16.27;9.23;;;9.80;99.90;;;;;;4952393;28;20232;-74
2024/03/03 00:29:10;;;;;;;16.30;9.37;;;9.90;99.90;;;;;;4953858;28;20451;-74
2024/03/03 00:31:45;;;;;;;14.03;10.30;;;9.90;99.90;;;;;;4945088;28;20218;-75
2024/03/03 00:34:10;;;;;;;16.70;10.07;;;9.90;99.90;;;;;;4946860;28;20225;-74
2024/03/03 00:36:36;;;;;;;16.37;10.00;;;9.90;99.90;;;;;;4964758;28;20984;-72
2024/03/03 00:39:04;;;;;;;14.80;8.60;;;10.00;99.90;;;;;;4951986;28;20218;-74
2024/03/03 00:41:29;;;;;;;15.30;9.57;;;10.00;99.90;;;;;;4968462;28;20231;-74
2024/03/03 00:43:55;;;;;;;12.90;8.27;;;10.00;99.90;;;;;;4969244;28;20453;-74
2024/03/03 00:46:21;;;;;;;20.70;9.63;;;9.90;99.90;;;;;;4965667;28;20301;-74
2024/03/03 00:48:46;;;;;;;12.50;8.90;;;9.90;99.90;;;;;;4964864;28;20654;-75
2024/03/03 00:51:12;;;;;;;16.93;9.70;;;9.90;99.90;;;;;;4960009;28;20730;-74
2024/03/03 00:53:37;;;;;;;14.80;8.20;;;9.90;99.90;;;;;;4967062;28;20237;-74
2024/03/03 00:56:05;;;;;;;20.60;10.23;;;9.90;99.90;;;;;;4964135;28;20227;-73
2024/03/03 00:58:30;;;;;;;16.10;11.27;;;9.80;99.90;;;;;;4965114;28;20230;-74
2024/03/03 01:00:56;;;;;;;14.53;9.40;;;9.80;99.90;;;;;;4969367;28;20464;-72
2024/03/03 01:03:22;;;;;;;16.90;9.17;;;9.80;99.90;;;;;;4965170;28;20241;-74
2024/03/03 01:05:47;;;;;;;15.77;9.20;;;9.80;99.90;;;;;;4963598;28;20234;-74
2024/03/03 01:08:13;;;;;;;15.90;9.13;;;9.80;99.90;;;;;;4966551;28;20734;-73
2024/03/03 01:10:39;;;;;;;17.10;10.13;;;9.80;99.90;;;;;;4967980;28;20629;-72
2024/03/03 01:13:05;;;;;;;13.30;8.83;;;9.90;99.90;;;;;;4964766;28;20277;-74
2024/03/03 01:15:30;;;;;;;17.97;8.33;;;9.80;99.90;;;;;;4969977;28;20744;-73
2024/03/03 01:17:56;;;;;;;17.80;10.20;;;9.80;99.90;;;;;;4964253;28;20644;-72
2024/03/03 01:20:22;;;;;;;39.37;19.30;;;9.80;99.90;;;;;;4965486;28;20230;-73
2024/03/03 01:22:47;;;;;;;30.97;16.90;;;9.70;99.90;;;;;;4963476;28;20315;-73
2024/03/03 01:25:13;;;;;;;42.03;20.50;;;9.70;99.90;;;;;;4963278;28;20641;-73
2024/03/03 01:27:39;;;;;;;32.23;17.63;;;9.70;99.90;;;;;;4963288;28;20688;-72
2024/03/03 01:30:05;;;;;;;26.10;12.80;;;9.70;99.90;;;;;;4966155;28;20670;-74
2024/03/03 01:32:31;;;;;;;15.37;10.03;;;9.80;99.90;;;;;;4964229;28;21004;-72
2024/03/03 01:34:56;;;;;;;17.50;10.60;;;9.80;99.90;;;;;;4949984;28;20533;-72
2024/03/03 01:37:23;;;;;;;16.93;10.57;;;9.70;99.90;;;;;;4948775;28;20223;-73
2024/03/03 01:39:48;;;;;;;14.97;10.20;;;9.60;99.90;;;;;;4969995;28;20250;-73
2024/03/03 01:42:14;;;;;;;15.73;9.10;;;9.70;99.90;;;;;;4965771;28;20510;-73
2024/03/03 01:44:41;;;;;;;16.20;9.67;;;9.70;99.90;;;;;;4966796;28;20228;-73
2024/03/03 01:47:11;;;;;;;18.43;9.87;;;9.60;99.90;;;;;;4964762;28;20470;-72
2024/03/03 01:49:38;;;;;;;16.90;10.30;;;9.60;99.90;;;;;;4971004;28;20457;-74
2024/03/03 01:52:05;;;;;;;18.40;9.97;;;9.30;99.90;;;;;;4981973;28;20462;-73
2024/03/03 01:54:40;;;;;;;17.60;9.93;;;9.10;99.90;;;;;;4981886;28;20863;-73
2024/03/03 01:57:16;;;;;;;19.40;10.40;;;9.30;99.90;;;;;;4969303;28;20491;-74
2024/03/03 01:59:42;;;;;;;19.53;9.00;;;9.40;99.90;;;;;;4967419;28;20462;-71
2024/03/03 02:02:08;;;;;;;23.20;10.03;;;9.40;99.90;;;;;;4968138;28;20848;-73
2024/03/03 02:04:35;;;;;;;17.07;9.97;;;9.40;99.90;;;;;;4965845;28;20219;-73
2024/03/03 02:07:01;;;;;;;16.13;10.20;;;9.40;99.90;;;;;;4952153;28;21091;-73
2024/03/03 02:09:27;;;;;;;20.13;9.00;;;9.50;99.90;;;;;;4965691;28;20468;-73
2024/03/03 02:11:53;;;;;;;16.77;9.70;;;9.50;99.90;;;;;;4968567;28;20466;-74
2024/03/03 02:14:19;;;;;;;17.07;9.53;;;9.50;99.90;;;;;;4963164;28;20465;-74
2024/03/03 02:16:45;;;;;;;14.67;9.80;;;9.50;99.90;;;;;;4967111;28;20218;-74
2024/03/03 02:19:11;;;;;;;19.83;10.67;;;9.40;99.90;;;;;;4963106;28;20223;-73
2024/03/03 02:21:37;;;;;;;21.30;9.50;;;9.30;99.90;;;;;;4967189;28;20458;-74
2024/03/03 02:24:03;;;;;;;17.23;9.40;;;9.40;99.90;;;;;;4968996;28;20277;-74
2024/03/03 02:26:29;;;;;;;23.23;10.27;;;9.40;99.90;;;;;;4962366;28;20709;-74
2024/03/03 02:28:55;;;;;;;15.67;9.23;;;9.40;99.90;;;;;;4969412;28;20296;-74
2024/03/03 02:31:21;;;;;;;18.57;10.13;;;9.40;99.90;;;;;;4966383;28;20490;-74
2024/03/03 02:33:47;;;;;;;20.80;10.87;;;9.40;99.90;;;;;;4969236;28;20880;-73
2024/03/03 02:36:13;;;;;;;23.30;9.80;;;9.30;99.90;;;;;;4966413;28;20474;-73
2024/03/03 02:38:41;;;;;;;19.20;11.23;;;9.30;99.90;;;;;;4969936;28;20214;-74
2024/03/03 02:41:08;;;;;;;14.83;8.70;;;9.10;99.90;;;;;;4963612;28;20215;-74
2024/03/03 02:43:34;;;;;;;16.47;9.80;;;9.00;99.90;;;;;;4961616;28;20443;-73
2024/03/03 02:46:00;;;;;;;14.80;8.87;;;9.00;99.90;;;;;;4963144;28;20462;-74
2024/03/03 02:48:25;;;;;;;19.50;10.20;;;9.00;99.90;;;;;;4960167;28;20541;-74
2024/03/03 02:50:51;;;;;;;15.13;9.67;;;8.80;99.90;;;;;;4947705;28;20836;-74
2024/03/03 02:53:17;;;;;;;19.60;10.00;;;8.90;99.90;;;;;;4956633;28;20313;-74
2024/03/03 02:55:43;;;;;;;15.50;8.67;;;9.00;99.90;;;;;;4963076;28;20466;-73
2024/03/03 02:58:08;;;;;;;16.10;9.43;;;9.00;99.90;;;;;;4962611;28;20269;-74
2024/03/03 03:00:35;;;;;;;18.83;9.43;;;9.00;99.90;;;;;;4967471;28;20236;-74
2024/03/03 03:03:01;;;;;;;16.50;9.83;;;9.00;99.90;;;;;;4967830;28;20230;-73
2024/03/03 03:05:26;;;;;;;22.83;9.27;;;8.90;99.90;;;;;;4948878;28;20444;-74
2024/03/03 03:07:52;;;;;;;18.03;9.20;;;8.60;99.90;;;;;;4967060;28;20224;-72
2024/03/03 03:10:18;;;;;;;12.53;7.73;;;8.60;99.90;;;;;;4975619;28;20226;-73
2024/03/03 03:12:44;;;;;;;15.30;8.83;;;8.70;99.90;;;;;;4964481;28;20313;-72
2024/03/03 03:15:10;;;;;;;18.73;9.13;;;8.80;99.90;;;;;;4961582;28;20561;-74
2024/03/03 03:17:36;;;;;;;17.00;9.27;;;8.80;99.90;;;;;;4953530;28;20684;-74
2024/03/03 03:20:02;;;;;;;16.70;9.77;;;8.80;99.90;;;;;;4966397;28;20457;-73
2024/03/03 03:22:29;;;;;;;12.97;8.33;;;8.80;99.90;;;;;;4963809;28;20254;-73
2024/03/03 03:24:54;;;;;;;14.37;8.20;;;8.80;99.90;;;;;;4972336;28;20225;-74
2024/03/03 03:27:20;;;;;;;16.07;9.07;;;8.70;99.90;;;;;;4949434;28;20458;-74
2024/03/03 03:29:46;;;;;;;13.40;9.57;;;8.80;99.90;;;;;;4966658;28;20214;-73
2024/03/03 03:32:11;;;;;;;20.00;10.00;;;8.70;99.90;;;;;;4964445;28;20232;-74
2024/03/03 03:34:37;;;;;;;18.27;9.77;;;8.70;99.90;;;;;;4967159;28;20222;-73
2024/03/03 03:37:03;;;;;;;19.83;10.33;;;8.70;99.90;;;;;;4967672;28;20253;-74
2024/03/03 03:39:29;;;;;;;16.50;8.50;;;8.70;99.90;;;;;;4968756;28;20234;-73
2024/03/03 03:41:55;;;;;;;18.43;10.40;;;8.70;99.90;;;;;;4961872;28;21000;-73
2024/03/03 03:44:21;;;;;;;22.00;10.00;;;8.70;99.90;;;;;;4944775;28;20253;-74
2024/03/03 03:46:46;;;;;;;21.63;9.10;;;8.60;99.90;;;;;;4961620;28;20623;-74
2024/03/03 03:49:14;;;;;;;17.53;9.50;;;8.60;99.90;;;;;;4955269;28;20222;-73
2024/03/03 03:51:40;;;;;;;17.03;9.10;;;8.60;99.90;;;;;;4954861;28;20214;-73
2024/03/03 03:54:07;;;;;;;15.80;9.60;;;8.60;99.90;;;;;;4949843;28;20467;-72
2024/03/03 03:56:36;;;;;;;16.67;9.03;;;8.60;99.90;;;;;;4960274;28;20454;-73
2024/03/03 03:59:03;;;;;;;19.83;9.70;;;8.60;99.90;;;;;;4965085;28;20486;-72
2024/03/03 04:01:29;;;;;;;19.73;9.23;;;8.70;99.90;;;;;;4960695;28;20474;-73
2024/03/03 04:03:55;;;;;;;15.83;10.23;;;8.70;99.90;;;;;;4963381;28;20462;-74
2024/03/03 04:06:26;;;;;;;16.20;9.90;;;8.70;99.90;;;;;;4943228;28;20820;-73
2024/03/03 04:08:52;;;;;;;17.53;9.37;;;8.70;99.90;;;;;;4962035;28;20473;-74
2024/03/03 04:11:18;;;;;;;16.17;8.80;;;8.80;99.90;;;;;;4957376;28;20462;-74
2024/03/03 04:13:46;;;;;;;22.40;9.57;;;8.80;99.90;;;;;;4952447;28;20470;-73
2024/03/03 04:16:11;;;;;;;20.90;9.83;;;8.70;99.90;;;;;;4958370;28;20469;-73
2024/03/03 04:18:38;;;;;;;18.73;9.73;;;8.80;99.90;;;;;;4962027;28;20462;-74
2024/03/03 04:21:04;;;;;;;15.80;9.30;;;8.70;99.90;;;;;;4964200;28;20261;-74
2024/03/03 04:23:29;;;;;;;17.00;9.63;;;8.70;99.90;;;;;;4958923;28;20486;-73
2024/03/03 04:25:55;;;;;;;14.90;9.20;;;8.80;99.90;;;;;;4972870;28;20218;-73
2024/03/03 04:28:21;;;;;;;18.10;10.43;;;8.70;99.90;;;;;;4963237;28;20218;-74
2024/03/03 04:30:46;;;;;;;16.20;9.20;;;8.70;99.90;;;;;;4963139;28;20233;-74
2024/03/03 04:33:12;;;;;;;13.50;8.37;;;8.70;99.90;;;;;;4954941;28;20251;-74
2024/03/03 04:35:42;;;;;;;19.97;9.63;;;8.70;99.90;;;;;;4963097;28;20214;-72
2024/03/03 04:38:08;;;;;;;15.47;8.60;;;8.70;99.90;;;;;;4964386;28;20210;-74
2024/03/03 04:40:34;;;;;;;18.93;8.80;;;8.80;99.90;;;;;;4964996;28;20455;-73
2024/03/03 04:42:59;;;;;;;12.67;9.13;;;8.80;99.90;;;;;;4943015;28;20483;-74
2024/03/03 04:45:25;;;;;;;19.27;8.53;;;8.70;99.90;;;;;;4956049;28;20237;-74
2024/03/03 04:47:51;;;;;;;15.87;9.63;;;8.70;99.90;;;;;;4958007;28;20226;-74
2024/03/03 04:50:17;;;;;;;15.67;10.00;;;8.60;99.90;;;;;;4955739;28;20215;-74
2024/03/03 04:52:42;;;;;;;14.90;9.37;;;8.60;99.90;;;;;;4958871;28;20221;-74
2024/03/03 04:55:08;;;;;;;18.53;10.47;;;8.60;99.90;;;;;;4956230;28;20857;-74
2024/03/03 04:57:34;;;;;;;20.23;9.60;;;8.60;99.90;;;;;;4961363;28;20221;-74
2024/03/03 04:59:59;;;;;;;13.23;8.40;;;8.60;99.90;;;;;;4964170;28;20684;-73
2024/03/03 05:02:25;;;;;;;15.63;9.57;;;8.60;99.90;;;;;;4954052;28;20234;-74
2024/03/03 05:04:51;;;;;;;17.83;8.43;;;8.70;99.90;;;;;;4961507;28;20676;-73
2024/03/03 05:07:17;;;;;;;15.37;9.40;;;8.70;99.90;;;;;;4957920;28;20209;-74
2024/03/03 05:09:43;;;;;;;17.13;9.83;;;8.70;99.90;;;;;;4958056;28;20219;-73
2024/03/03 05:12:09;;;;;;;14.57;8.60;;;8.60;99.90;;;;;;4956918;28;20465;-74
2024/03/03 05:14:35;;;;;;;13.40;8.70;;;8.70;99.90;;;;;;4955515;28;20226;-74
2024/03/03 05:17:01;;;;;;;17.73;9.00;;;8.60;99.90;;;;;;4942145;28;20937;-73
2024/03/03 05:19:27;;;;;;;16.50;8.70;;;8.60;99.90;;;;;;4954946;28;20484;-74
2024/03/03 05:21:53;;;;;;;13.07;7.80;;;8.60;99.90;;;;;;4959145;28;20482;-74
2024/03/03 05:24:19;;;;;;;14.43;8.13;;;8.60;99.90;;;;;;4964497;28;20452;-73
2024/03/03 05:26:45;;;;;;;16.10;9.00;;;8.60;99.90;;;;;;4965044;28;20246;-74
2024/03/03 05:29:12;;;;;;;14.67;7.77;;;8.60;99.90;;;;;;4978631;28;20210;-74
2024/03/03 05:31:42;;;;;;;22.53;9.50;;;8.60;99.90;;;;;;4963014;28;20222;-74
2024/03/03 05:34:15;;;;;;;11.83;7.90;;;8.70;99.90;;;;;;4961754;28;20987;-73
2024/03/03 05:36:45;;;;;;;12.60;8.13;;;8.70;99.90;;;;;;4964356;28;20472;-74
2024/03/03 05:39:12;;;;;;;14.03;8.80;;;8.70;99.90;;;;;;4958345;28;20470;-74
2024/03/03 05:41:38;;;;;;;14.43;8.57;;;8.70;99.90;;;;;;4977050;28;20466;-74
2024/03/03 05:44:04;;;;;;;11.67;7.97;;;8.70;99.90;;;;;;4962752;28;20818;-73
2024/03/03 05:46:31;;;;;;;16.53;8.87;;;8.70;99.90;;;;;;4960326;28;20450;-73
2024/03/03 05:48:56;;;;;;;12.17;8.50;;;8.70;99.90;;;;;;4966635;28;20309;-73
2024/03/03 05:51:22;;;;;;;16.10;9.57;;;8.70;99.90;;;;;;4959566;28;20461;-74
2024/03/03 05:53:48;;;;;;;18.70;10.40;;;8.60;99.90;;;;;;4965134;28;20211;-73
2024/03/03 05:56:17;;;;;;;17.53;9.67;;;8.60;99.90;;;;;;4961015;28;20452;-74
2024/03/03 05:58:43;;;;;;;12.40;8.57;;;8.60;99.90;;;;;;4976354;28;20334;-71
2024/03/03 06:01:09;;;;;;;16.90;9.13;;;8.60;99.90;;;;;;4958721;28;20462;-73
2024/03/03 06:03:36;;;;;;;12.73;9.10;;;8.60;99.90;;;;;;4966628;28;20831;-74
2024/03/03 06:06:02;;;;;;;13.63;8.70;;;8.50;99.90;;;;;;4946910;28;20476;-74
2024/03/03 06:08:28;;;;;;;17.67;10.43;;;8.50;99.90;;;;;;4955680;28;20486;-74
2024/03/03 06:10:54;;;;;;;16.37;9.80;;;8.50;99.90;;;;;;4964962;28;20580;-72
2024/03/03 06:13:20;;;;;;;17.57;10.00;;;8.50;99.90;;;;;;4968838;28;20466;-74
2024/03/03 06:15:47;;;;;;;15.63;9.67;;;8.60;99.90;;;;;;4961101;28;20464;-73
2024/03/03 06:18:14;;;;;;;16.87;11.03;;;8.50;99.90;;;;;;4958605;28;20713;-72
2024/03/03 06:20:39;;;;;;;17.37;9.70;;;8.50;99.90;;;;;;4963174;28;20549;-74
2024/03/03 06:23:05;;;;;;;15.50;10.60;;;8.50;99.90;;;;;;4958667;28;20648;-74
2024/03/03 06:25:31;;;;;;;18.33;9.57;;;8.50;99.90;;;;;;4960365;28;20218;-73
2024/03/03 06:27:57;;;;;;;19.53;9.63;;;8.50;99.90;;;;;;4962758;28;20222;-74
2024/03/03 06:30:23;;;;;;;16.57;9.60;;;8.50;99.90;;;;;;4956194;28;20522;-74
2024/03/03 06:32:48;;;;;;;16.50;9.17;;;8.50;99.90;;;;;;4956111;28;20462;-74
2024/03/03 06:35:14;;;;;;;16.13;9.60;;;8.40;99.90;;;;;;4956091;28;20230;-74
2024/03/03 06:37:42;;;;;;;15.03;9.80;;;8.40;99.90;;;;;;4963246;28;20242;-74
2024/03/03 06:40:09;;;;;;;13.87;9.23;;;8.50;99.90;;;;;;4961274;28;20219;-73
2024/03/03 06:42:38;;;;;;;16.00;9.80;;;8.50;99.90;;;;;;4961759;28;21117;-72
2024/03/03 06:45:05;;;;;;;15.93;9.60;;;8.50;99.90;;;;;;4960676;28;20886;-74
2024/03/03 06:47:32;;;;;;;22.67;11.40;;;8.40;99.90;;;;;;4958920;28;20481;-74
2024/03/03 06:49:59;;;;;;;14.80;9.70;;;8.40;99.90;;;;;;4958258;28;20475;-74
2024/03/03 06:52:26;;;;;;;11.70;8.30;;;8.40;99.90;;;;;;4955745;28;22598;-74
2024/03/03 06:54:51;;;;;;;13.60;9.20;;;8.50;99.90;;;;;;4966005;28;20509;-73
2024/03/03 06:57:17;;;;;;;16.57;9.53;;;8.50;99.90;;;;;;4961830;28;21061;-74
2024/03/03 06:59:43;;;;;;;18.00;9.90;;;8.50;99.90;;;;;;4960220;28;20231;-74
2024/03/03 07:02:09;;;;;;;17.97;9.43;;;8.50;99.90;;;;;;4956897;28;20588;-73
2024/03/03 07:04:35;;;;;;;17.23;9.30;;;8.50;99.90;;;;;;4963148;28;20232;-73
2024/03/03 07:07:02;;;;;;;15.07;9.97;;;8.60;99.90;;;;;;4962941;28;20454;-72
2024/03/03 07:09:28;;;;;;;20.10;10.90;;;8.60;99.90;;;;;;4959006;28;20215;-73
2024/03/03 07:11:55;;;;;;;18.50;10.00;;;8.60;99.90;;;;;;4960755;28;20458;-73
2024/03/03 07:14:22;;;;;;;16.07;10.17;;;8.60;99.90;;;;;;4956443;28;20296;-73
2024/03/03 07:16:48;;;;;;;13.77;8.97;;;8.60;99.90;;;;;;4945216;28;20460;-73
2024/03/03 07:19:14;;;;;;;19.27;9.93;;;8.60;99.90;;;;;;4957644;28;20470;-73
2024/03/03 07:21:40;;;;;;;16.80;9.57;;;8.60;99.90;;;;;;4958575;28;20515;-72
2024/03/03 07:24:06;;;;;;;16.70;9.80;;;8.70;99.90;;;;;;4960182;28;20529;-73
2024/03/03 07:26:32;;;;;;;14.47;8.70;;;8.60;99.90;;;;;;4959161;28;20234;-74
2024/03/03 07:28:57;;;;;;;14.80;9.50;;;8.70;99.90;;;;;;4962514;28;20461;-73
2024/03/03 07:31:23;;;;;;;16.17;10.00;;;8.70;99.90;;;;;;4956612;28;20226;-73
2024/03/03 07:33:49;;;;;;;15.63;8.70;;;8.70;99.90;;;;;;4974767;28;20707;-73
2024/03/03 07:36:14;;;;;;;16.23;9.03;;;8.70;99.90;;;;;;4972022;28;20259;-74
2024/03/03 07:38:40;;;;;;;16.00;9.60;;;8.80;99.90;;;;;;4957210;28;20225;-74
2024/03/03 07:41:06;;;;;;;18.40;10.17;;;8.80;99.90;;;;;;4956868;28;20306;-74
2024/03/03 07:43:32;;;;;;;14.80;9.00;;;8.80;99.90;;;;;;4957246;28;20234;-73
2024/03/03 07:45:58;;;;;;;15.77;9.50;;;8.80;99.90;;;;;;4961043;28;20669;-74
2024/03/03 07:48:24;;;;;;;16.40;8.37;;;8.90;99.90;;;;;;4953799;28;20227;-74
2024/03/03 07:50:50;;;;;;;15.57;9.50;;;9.00;99.90;;;;;;4976217;28;20908;-74
2024/03/03 07:53:17;;;;;;;12.10;8.73;;;9.00;99.90;;;;;;4957184;28;21093;-74
2024/03/03 07:55:43;;;;;;;17.60;10.30;;;9.00;99.90;;;;;;4957346;28;20462;-74
2024/03/03 07:58:09;;;;;;;18.37;10.07;;;9.00;99.90;;;;;;4955100;28;20473;-73
2024/03/03 08:00:34;;;;;;;17.23;8.80;;;9.00;99.90;;;;;;4961379;28;20468;-73
2024/03/03 08:03:01;;;;;;;16.30;9.60;;;9.00;99.90;;;;;;4957470;28;20241;-74
2024/03/03 08:05:28;;;;;;;14.83;9.17;;;9.10;99.90;;;;;;4957521;28;20226;-73
2024/03/03 08:07:54;;;;;;;17.13;9.87;;;9.10;99.90;;;;;;4963817;28;20508;-74
2024/03/03 08:10:20;;;;;;;16.83;9.13;;;9.00;99.90;;;;;;4958882;28;20984;-75
2024/03/03 08:12:46;;;;;;;18.60;10.40;;;9.10;99.90;;;;;;4959162;28;20593;-74
2024/03/03 08:15:12;;;;;;;18.57;10.57;;;9.20;99.90;;;;;;4956222;28;20242;-73
2024/03/03 08:17:38;;;;;;;18.20;10.40;;;9.20;99.90;;;;;;4959313;28;20223;-74
2024/03/03 08:20:04;;;;;;;16.73;9.73;;;9.10;99.90;;;;;;4942084;28;20472;-75
2024/03/03 08:22:30;;;;;;;17.57;10.27;;;9.20;99.90;;;;;;4970593;28;20226;-75
2024/03/03 08:24:55;;;;;;;18.23;10.77;;;9.20;99.90;;;;;;4955876;28;20481;-74
2024/03/03 08:27:21;;;;;;;16.53;9.13;;;9.30;99.90;;;;;;4970601;28;20218;-74
2024/03/03 08:29:47;;;;;;;14.23;9.73;;;9.30;99.90;;;;;;4958759;28;20222;-74
2024/03/03 08:32:13;;;;;;;14.10;9.10;;;9.30;99.90;;;;;;4956297;28;20230;-72
2024/03/03 08:34:38;;;;;;;14.73;9.37;;;9.30;99.90;;;;;;4958370;28;20214;-73
2024/03/03 08:37:04;;;;;;;16.70;9.53;;;9.30;99.90;;;;;;4960439;28;20684;-74
2024/03/03 08:39:32;;;;;;;17.40;9.97;;;9.30;99.90;;;;;;4956575;28;20677;-74
2024/03/03 08:41:58;;;;;;;21.80;9.70;;;9.30;99.90;;;;;;4969625;28;20776;-74
2024/03/03 08:44:24;;;;;;;20.20;9.77;;;9.30;99.90;;;;;;4957323;28;20552;-74
2024/03/03 08:46:50;;;;;;;17.37;10.80;;;9.30;99.90;;;;;;4960791;28;20226;-74
2024/03/03 08:49:16;;;;;;;17.47;10.30;;;9.30;99.90;;;;;;4952208;28;20228;-74
2024/03/03 08:51:44;;;;;;;16.70;10.20;;;9.20;99.90;;;;;;4958949;28;20466;-73
2024/03/03 08:54:10;;;;;;;20.27;10.80;;;9.30;99.90;;;;;;4955841;28;20240;-73
2024/03/03 08:56:36;;;;;;;25.80;12.00;;;9.30;99.90;;;;;;4959803;28;20834;-74
2024/03/03 08:59:01;;;;;;;21.37;10.70;;;9.30;99.90;;;;;;4963666;28;20223;-74
2024/03/03 09:01:27;;;;;;;14.80;9.03;;;9.30;99.90;;;;;;4957943;28;20281;-73
2024/03/03 09:03:53;;;;;;;20.13;10.00;;;9.30;99.90;;;;;;4963123;28;20242;-74
2024/03/03 09:06:18;;;;;;;14.90;9.17;;;9.30;99.90;;;;;;4957880;28;20219;-73
2024/03/03 09:08:44;;;;;;;18.83;10.93;;;9.40;99.90;;;;;;4981596;28;20218;-71
2024/03/03 09:11:13;;;;;;;13.97;9.23;;;9.40;99.90;;;;;;4961422;28;20305;-73
2024/03/03 09:13:39;;;;;;;17.70;10.30;;;9.50;99.90;;;;;;4968177;28;20577;-73
2024/03/03 09:16:05;;;;;;;16.30;10.10;;;9.60;99.90;;;;;;4981506;28;20508;-74
2024/03/03 09:18:31;;;;;;;12.63;8.53;;;9.60;99.90;;;;;;4978564;28;20212;-74
2024/03/03 09:20:56;;;;;;;16.70;10.07;;;9.70;99.90;;;;;;4966810;28;20454;-74
2024/03/03 09:23:22;;;;;;;16.67;10.30;;;9.80;99.90;;;;;;4967278;28;20242;-74
2024/03/03 09:25:48;;;;;;;17.20;10.13;;;9.80;99.90;;;;;;4966703;28;20663;-74
2024/03/03 09:28:13;;;;;;;16.90;9.50;;;9.70;99.90;;;;;;4968992;28;20250;-74
2024/03/03 09:30:39;;;;;;;16.03;10.30;;;9.70;99.90;;;;;;4967317;28;20238;-74
2024/03/03 09:33:05;;;;;;;18.80;11.00;;;9.70;99.90;;;;;;4968572;28;20273;-74
2024/03/03 09:35:30;;;;;;;15.90;9.70;;;9.80;99.90;;;;;;4968913;28;20222;-73
2024/03/03 09:37:56;;;;;;;16.40;9.90;;;9.70;99.90;;;;;;4972124;28;20242;-74
2024/03/03 09:40:22;;;;;;;16.20;9.40;;;9.70;99.90;;;;;;4953665;28;20225;-74
2024/03/03 09:42:49;;;;;;;17.13;9.60;;;9.80;99.90;;;;;;4952553;28;20701;-74
2024/03/03 09:45:19;;;;;;;19.03;10.63;;;9.90;99.90;;;;;;4968018;28;20522;-74
2024/03/03 09:47:47;;;;;;;14.57;9.60;;;10.00;99.90;;;;;;4967797;28;20818;-74
2024/03/03 09:50:14;;;;;;;16.43;10.27;;;10.10;99.90;;;;;;4963056;28;20556;-73
2024/03/03 09:52:46;;;;;;;16.57;10.23;;;10.10;99.90;;;;;;4966428;28;20469;-74
2024/03/03 09:55:11;;;;;;;16.20;9.27;;;10.10;99.90;;;;;;4968599;28;20461;-74
2024/03/03 09:57:40;;;;;;;19.20;10.50;;;10.10;99.90;;;;;;4974190;28;20476;-74
2024/03/03 10:00:07;;;;;;;14.73;9.80;;;10.20;99.90;;;;;;4965836;28;20229;-73
2024/03/03 10:02:39;;;;;;;16.67;9.73;;;10.20;99.90;;;;;;4968361;28;20900;-74
2024/03/03 10:05:07;;;;;;;19.27;11.20;;;10.40;99.90;;;;;;4971696;28;20472;-74
2024/03/03 10:07:41;;;;;;;16.97;9.47;;;10.50;99.90;;;;;;4969063;28;20473;-73
2024/03/03 10:10:08;;;;;;;14.10;9.37;;;10.50;99.90;;;;;;4968801;28;20458;-74
2024/03/03 10:12:34;;;;;;;21.50;11.47;;;10.50;99.90;;;;;;4972379;28;20496;-74
2024/03/03 10:15:02;;;;;;;17.33;10.83;;;10.50;99.90;;;;;;4969150;28;20460;-73
2024/03/03 10:17:27;;;;;;;14.10;8.77;;;10.60;99.90;;;;;;4965271;28;20885;-74
2024/03/03 10:20:08;;;;;;;17.33;10.03;;;10.60;99.90;;;;;;4970228;28;20538;-73
2024/03/03 10:22:34;;;;;;;18.50;10.77;;;10.60;99.90;;;;;;4968377;28;20233;-73
2024/03/03 10:25:10;;;;;;;18.27;10.20;;;10.60;99.90;;;;;;4968170;28;20474;-73
2024/03/03 10:27:38;;;;;;;17.90;10.10;;;10.80;99.90;;;;;;4966322;28;20458;-74
2024/03/03 10:30:07;;;;;;;13.90;8.57;;;10.90;99.90;;;;;;4965503;28;20458;-74
2024/03/03 10:32:33;;;;;;;16.20;9.87;;;10.90;99.90;;;;;;4959075;28;20465;-73
2024/03/03 10:35:00;;;;;;;21.20;9.40;;;11.10;99.90;;;;;;4946206;28;20977;-74
2024/03/03 10:37:27;;;;;;;15.10;9.43;;;11.10;99.90;;;;;;4956255;28;20501;-74
2024/03/03 10:39:53;;;;;;;17.80;9.50;;;11.10;99.90;;;;;;4961940;28;20469;-74
2024/03/03 10:42:19;;;;;;;16.63;9.90;;;11.10;99.90;;;;;;4958363;28;20484;-75
2024/03/03 10:44:45;;;;;;;16.47;9.90;;;11.10;99.90;;;;;;4959863;28;20314;-75
2024/03/03 10:47:14;;;;;;;14.00;9.40;;;11.00;99.90;;;;;;4958175;28;20215;-75
2024/03/03 10:49:40;;;;;;;16.83;10.30;;;11.10;99.90;;;;;;4962388;28;20458;-74
2024/03/03 10:52:11;;;;;;;19.00;11.53;;;11.20;99.90;;;;;;4964596;28;20462;-75
2024/03/03 10:54:41;;;;;;;17.57;9.70;;;11.30;99.90;;;;;;4976376;28;20457;-75
2024/03/03 10:57:09;;;;;;;18.97;10.43;;;11.20;99.90;;;;;;4961511;28;20468;-75
2024/03/03 10:59:37;;;;;;;15.80;10.63;;;11.40;99.90;;;;;;4961572;28;20528;-74
2024/03/03 11:02:04;;;;;;;18.20;11.13;;;11.50;99.90;;;;;;4959067;28;20478;-75
2024/03/03 11:04:32;;;;;;;18.03;10.37;;;11.60;99.90;;;;;;4958142;28;20464;-75
2024/03/03 11:07:00;;;;;;;13.60;9.33;;;11.90;99.90;;;;;;4962269;28;20465;-75
2024/03/03 11:09:26;;;;;;;16.67;9.77;;;12.00;99.90;;;;;;4956398;28;20454;-75
2024/03/03 11:12:03;;;;;;;14.60;9.40;;;12.10;99.90;;;;;;4958249;28;20473;-75
2024/03/03 11:14:43;;;;;;;14.07;9.17;;;12.20;99.90;;;;;;4940468;28;20469;-74
2024/03/03 11:17:17;;;;;;;16.33;9.90;;;12.20;99.90;;;;;;4959589;28;20856;-74
2024/03/03 11:19:49;;;;;;;16.50;10.47;;;12.50;99.90;;;;;;4960603;28;20465;-74
2024/03/03 11:22:24;;;;;;;17.27;10.67;;;12.50;99.90;;;;;;4970409;28;20903;-74
2024/03/03 11:24:57;;;;;;;18.93;9.50;;;12.70;99.90;;;;;;4959443;28;20465;-76
2024/03/03 11:27:26;;;;;;;16.47;10.13;;;12.80;99.90;;;;;;4941209;28;20508;-74
2024/03/03 11:29:52;;;;;;;18.27;11.30;;;12.50;99.90;;;;;;4943951;28;20462;-74
2024/03/03 11:32:21;;;;;;;14.33;9.93;;;12.30;99.90;;;;;;4954880;28;20474;-73
2024/03/03 11:34:48;;;;;;;15.73;10.17;;;12.40;99.90;;;;;;4961052;28;20493;-74
2024/03/03 11:37:14;;;;;;;14.13;8.80;;;12.40;99.90;;;;;;4958914;28;20472;-74
2024/03/03 11:39:59;;;;;;;15.00;9.50;;;12.40;99.90;;;;;;4961841;28;20464;-74
2024/03/03 11:42:38;;;;;;;14.03;9.83;;;12.40;99.90;;;;;;4955730;28;20478;-74
2024/03/03 11:45:06;;;;;;;17.17;11.20;;;12.50;99.90;;;;;;4958799;28;20466;-73
2024/03/03 11:47:45;;;;;;;16.90;10.07;;;12.60;99.90;;;;;;4956752;28;20454;-74
2024/03/03 11:50:22;;;;;;;16.67;9.63;;;12.70;99.90;;;;;;4960141;28;20461;-74
2024/03/03 11:52:52;;;;;;;17.40;13.47;;;12.90;99.90;;;;;;4961465;28;20464;-74
2024/03/03 11:55:26;;;;;;;18.20;12.77;;;13.10;99.90;;;;;;4952491;28;20468;-74
2024/03/03 11:57:55;;;;;;;21.00;13.60;;;13.00;99.90;;;;;;4960613;28;20470;-74
2024/03/03 12:00:26;;;;;;;19.80;14.20;;;13.20;99.90;;;;;;4960984;28;20465;-75
2024/03/03 12:02:53;;;;;;;21.40;15.00;;;13.30;99.90;;;;;;4953046;28;20557;-74
2024/03/03 12:05:20;;;;;;;23.00;17.03;;;13.40;99.90;;;;;;4955538;28;20466;-74
2024/03/03 12:07:48;;;;;;;18.47;12.17;;;13.20;99.90;;;;;;4959401;28;21032;-74
2024/03/03 12:10:31;;;;;;;14.43;10.57;;;13.00;99.90;;;;;;4956812;28;20471;-74
2024/03/03 12:12:59;;;;;;;14.37;10.20;;;13.40;99.90;;;;;;4959664;28;20474;-74
2024/03/03 12:15:26;;;;;;;18.07;11.70;;;13.70;99.90;;;;;;4952566;28;20469;-74
2024/03/03 12:17:53;;;;;;;18.77;14.40;;;13.80;99.90;;;;;;4954775;28;20462;-74
2024/03/03 12:20:24;;;;;;;19.57;13.50;;;13.90;99.90;;;;;;4951128;28;20458;-75
2024/03/03 12:22:51;;;;;;;18.30;11.43;;;14.00;99.90;;;;;;4960906;28;20493;-74
2024/03/03 12:25:19;;;;;;;14.27;10.60;;;13.70;99.90;;;;;;4956005;28;20865;-75
2024/03/03 12:27:55;;;;;;;17.10;10.67;;;13.70;99.90;;;;;;4960761;28;20458;-74
2024/03/03 12:30:25;;;;;;;9.70;7.37;;;13.50;99.90;;;;;;4956514;28;20503;-75
2024/03/03 12:32:51;;;;;;;13.50;9.47;;;13.30;99.90;;;;;;4973111;28;20987;-75
2024/03/03 12:35:17;;;;;;;16.37;9.97;;;13.10;99.90;;;;;;4952334;28;20470;-74
2024/03/03 12:37:43;;;;;;;10.60;8.73;;;13.20;99.90;;;;;;4957550;28;20226;-74
2024/03/03 12:40:10;;;;;;;18.37;10.83;;;13.20;99.90;;;;;;4956291;28;20524;-74